createdAt,value
2019-05-29T00:00:18.273Z,16.59
2019-05-29T00:02:56.482Z,16.57
2019-05-29T00:05:38.483Z,16.56
2019-05-29T00:08:18.535Z,16.54
2019-05-29T00:10:50.742Z,16.59
2019-05-29T00:13:24.282Z,16.55
2019-05-29T00:15:57.182Z,16.47
2019-05-29T00:18:29.752Z,16.45
2019-05-29T00:21:02.614Z,16.48
2019-05-29T00:23:35.141Z,16.50
2019-05-29T00:26:08.298Z,16.45
2019-05-29T00:28:41.262Z,16.42
2019-05-29T00:31:14.073Z,16.30
2019-05-29T00:33:46.662Z,16.26
2019-05-29T00:36:19.195Z,16.19
2019-05-29T00:38:51.832Z,16.15
2019-05-29T00:41:24.432Z,16.13
2019-05-29T00:43:57.012Z,16.11
2019-05-29T00:46:29.675Z,16.07
2019-05-29T00:49:02.282Z,16.05
2019-05-29T00:51:34.793Z,16.03
2019-05-29T00:54:08.238Z,15.98
2019-05-29T00:56:40.842Z,15.97
2019-05-29T00:59:13.352Z,15.95
2019-05-29T01:01:45.783Z,15.93
2019-05-29T01:04:18.362Z,15.93
2019-05-29T01:06:50.932Z,15.93
2019-05-29T01:09:24.483Z,15.91
2019-05-29T01:11:57.061Z,15.94
2019-05-29T01:14:32.672Z,15.99
2019-05-29T01:17:05.133Z,15.99
2019-05-29T01:19:37.682Z,15.96
2019-05-29T01:22:12.303Z,15.92
2019-05-29T01:24:44.972Z,15.87
2019-05-29T01:27:18.878Z,15.84
2019-05-29T01:29:51.534Z,15.83
2019-05-29T01:32:24.023Z,15.81
2019-05-29T01:34:56.767Z,15.78
2019-05-29T01:37:29.224Z,15.77
2019-05-29T01:40:16.602Z,15.76
2019-05-29T01:42:35.901Z,15.72
2019-05-29T01:45:08.968Z,15.75
2019-05-29T01:47:41.462Z,15.75
2019-05-29T01:50:15.581Z,15.71
2019-05-29T01:52:50.283Z,15.66
2019-05-29T01:55:23.827Z,15.67
2019-05-29T01:57:56.492Z,15.66
2019-05-29T02:00:29.063Z,15.67
2019-05-29T02:03:02.214Z,15.66
2019-05-29T02:05:34.845Z,15.64
2019-05-29T02:08:07.482Z,15.66
2019-05-29T02:10:40.903Z,15.67
2019-05-29T02:13:17.267Z,15.65
2019-05-29T02:15:49.962Z,15.63
2019-05-29T02:18:23.028Z,15.62
2019-05-29T02:20:55.672Z,15.61
2019-05-29T02:23:28.352Z,15.57
2019-05-29T02:26:02.365Z,15.55
2019-05-29T02:28:35.272Z,15.52
2019-05-29T02:31:07.941Z,15.46
2019-05-29T02:33:40.703Z,15.44
2019-05-29T02:36:13.412Z,15.46
2019-05-29T02:38:45.984Z,15.49
2019-05-29T02:41:19.122Z,15.52
2019-05-29T02:43:52.931Z,15.55
2019-05-29T02:46:28.568Z,15.55
2019-05-29T02:49:01.345Z,15.58
2019-05-29T02:51:33.967Z,15.60
2019-05-29T02:54:06.668Z,15.62
2019-05-29T02:56:42.481Z,15.61
2019-05-29T02:59:13.535Z,15.62
2019-05-29T03:01:49.330Z,15.60
2019-05-29T03:04:26.218Z,15.60
2019-05-29T03:06:59.564Z,15.59
2019-05-29T03:09:32.701Z,15.59
2019-05-29T03:12:05.570Z,15.59
2019-05-29T03:14:38.163Z,15.59
2019-05-29T03:17:12.172Z,15.59
2019-05-29T03:19:45.774Z,15.60
2019-05-29T03:22:18.417Z,15.59
2019-05-29T03:24:51.212Z,15.58
2019-05-29T03:27:23.652Z,15.56
2019-05-29T03:29:56.247Z,15.53
2019-05-29T03:32:32.433Z,15.54
2019-05-29T03:35:02.905Z,15.58
2019-05-29T03:37:35.684Z,15.57
2019-05-29T03:40:08.427Z,15.54
2019-05-29T03:42:41.075Z,15.55
2019-05-29T03:45:14.069Z,15.57
2019-05-29T03:47:46.816Z,15.57
2019-05-29T03:50:19.716Z,15.56
2019-05-29T03:52:52.232Z,15.58
2019-05-29T03:55:24.806Z,15.63
2019-05-29T03:57:57.623Z,15.64
2019-05-29T04:00:38.899Z,15.66
2019-05-29T04:03:08.774Z,15.65
2019-05-29T04:05:41.588Z,15.58
2019-05-29T04:08:15.994Z,15.58
2019-05-29T04:10:51.734Z,15.49
2019-05-29T04:13:27.463Z,15.39
2019-05-29T04:16:02.175Z,15.26
2019-05-29T04:18:35.941Z,15.19
2019-05-29T04:21:11.485Z,15.16
2019-05-29T04:23:46.415Z,15.08
2019-05-29T04:26:20.652Z,15.00
2019-05-29T04:28:53.782Z,14.98
2019-05-29T04:31:28.059Z,14.92
2019-05-29T04:34:00.878Z,14.89
2019-05-29T04:36:34.862Z,14.84
2019-05-29T04:39:08.409Z,14.82
2019-05-29T04:41:45.255Z,14.77
2019-05-29T04:44:17.934Z,14.77
2019-05-29T04:47:07.099Z,14.74
2019-05-29T04:49:29.212Z,14.76
2019-05-29T04:52:01.793Z,14.74
2019-05-29T04:54:35.403Z,14.77
2019-05-29T04:57:10.182Z,14.76
2019-05-29T04:59:42.902Z,14.77
2019-05-29T05:02:15.532Z,14.73
2019-05-29T05:04:49.512Z,14.69
2019-05-29T05:07:22.354Z,14.67
2019-05-29T05:09:54.943Z,14.67
2019-05-29T05:12:27.713Z,14.59
2019-05-29T05:15:03.521Z,14.46
2019-05-29T05:17:36.278Z,14.48
2019-05-29T05:20:09.193Z,14.47
2019-05-29T05:22:41.652Z,14.53
2019-05-29T05:25:16.121Z,14.53
2019-05-29T05:27:53.322Z,14.44
2019-05-29T05:30:25.922Z,14.35
2019-05-29T05:32:58.797Z,14.38
2019-05-29T05:35:32.587Z,14.46
2019-05-29T05:38:06.711Z,14.46
2019-05-29T05:40:41.873Z,14.45
2019-05-29T05:43:23.524Z,14.44
2019-05-29T05:45:49.894Z,14.41
2019-05-29T05:48:22.623Z,14.40
2019-05-29T05:50:58.752Z,14.39
2019-05-29T05:53:31.395Z,14.32
2019-05-29T05:56:04.497Z,14.27
2019-05-29T05:58:37.823Z,14.24
2019-05-29T06:01:11.905Z,14.26
2019-05-29T06:03:44.883Z,14.23
2019-05-29T06:06:19.382Z,14.18
2019-05-29T06:08:56.112Z,14.11
2019-05-29T06:11:30.673Z,14.04
2019-05-29T06:14:04.553Z,13.91
2019-05-29T06:16:37.096Z,14.00
2019-05-29T06:19:22.181Z,13.97
2019-05-29T06:21:56.773Z,13.97
2019-05-29T06:24:29.292Z,13.88
2019-05-29T06:27:07.842Z,13.85
2019-05-29T06:29:45.157Z,13.91
2019-05-29T06:32:20.812Z,13.94
2019-05-29T06:34:58.816Z,13.93
2019-05-29T06:37:33.599Z,13.91
2019-05-29T06:40:08.032Z,13.84
2019-05-29T06:42:44.732Z,13.75
2019-05-29T06:45:28.823Z,13.70
2019-05-29T06:48:04.095Z,13.65
2019-05-29T06:50:39.261Z,13.62
2019-05-29T06:53:14.672Z,13.64
2019-05-29T06:55:53.835Z,13.63
2019-05-29T06:58:31.333Z,13.67
2019-05-29T07:01:10.726Z,13.66
2019-05-29T07:03:49.589Z,13.58
2019-05-29T07:06:24.176Z,13.51
2019-05-29T07:09:02.623Z,13.40
2019-05-29T07:11:37.703Z,13.33
2019-05-29T07:14:13.216Z,13.28
2019-05-29T07:16:55.650Z,13.20
2019-05-29T07:19:45.137Z,13.16
2019-05-29T07:22:38.921Z,13.20
2019-05-29T07:25:49.813Z,13.23
2019-05-29T07:29:03.086Z,13.17
2019-05-29T07:32:09.762Z,13.21
2019-05-29T07:35:22.602Z,13.23
2019-05-29T07:38:02.783Z,13.12
2019-05-29T07:40:38.401Z,13.13
2019-05-29T07:43:17.096Z,13.11
2019-05-29T07:45:51.783Z,13.10
2019-05-29T07:48:27.363Z,13.07
2019-05-29T07:51:06.893Z,13.06
2019-05-29T07:53:36.085Z,13.07
2019-05-29T07:56:22.148Z,13.06
2019-05-29T07:59:01.831Z,13.14
2019-05-29T08:01:25.683Z,13.14
2019-05-29T08:03:58.542Z,13.12
2019-05-29T08:06:32.846Z,12.95
2019-05-29T08:09:12.502Z,12.83
2019-05-29T08:11:45.661Z,12.67
2019-05-29T08:14:20.813Z,12.65
2019-05-29T08:16:53.983Z,12.66
2019-05-29T08:19:26.612Z,12.68
2019-05-29T08:21:59.292Z,12.74
2019-05-29T08:24:32.033Z,12.67
2019-05-29T08:27:10.671Z,12.69
2019-05-29T08:29:58.191Z,12.72
2019-05-29T08:32:34.498Z,12.65
2019-05-29T08:35:09.998Z,12.61
2019-05-29T08:37:44.862Z,12.60
2019-05-29T08:40:23.462Z,12.64
2019-05-29T08:42:58.112Z,12.77
2019-05-29T08:45:35.623Z,12.75
2019-05-29T08:48:09.722Z,12.72
2019-05-29T08:50:45.690Z,12.69
2019-05-29T08:53:20.092Z,12.68
2019-05-29T08:55:56.027Z,12.59
2019-05-29T08:58:31.276Z,12.46
2019-05-29T09:01:06.116Z,12.44
2019-05-29T09:03:44.867Z,12.47
2019-05-29T09:06:19.760Z,12.47
2019-05-29T09:08:56.741Z,12.47
2019-05-29T09:11:31.821Z,12.59
2019-05-29T09:14:06.772Z,12.67
2019-05-29T09:16:40.850Z,12.76
2019-05-29T09:19:14.413Z,12.77
2019-05-29T09:21:49.721Z,12.75
2019-05-29T09:24:24.033Z,12.84
2019-05-29T09:26:58.324Z,13.01
2019-05-29T09:29:37.592Z,13.03
2019-05-29T09:32:14.840Z,13.02
2019-05-29T09:34:50.246Z,13.02
2019-05-29T09:37:26.853Z,12.98
2019-05-29T09:40:04.633Z,12.95
2019-05-29T09:42:40.746Z,12.94
2019-05-29T09:45:23.433Z,12.94
2019-05-29T09:47:59.192Z,12.95
2019-05-29T09:50:49.335Z,12.95
2019-05-29T09:53:09.161Z,13.00
2019-05-29T09:55:42.772Z,13.01
2019-05-29T09:58:18.995Z,13.11
2019-05-29T10:01:15.876Z,13.08
2019-05-29T10:03:28.545Z,13.08
2019-05-29T10:08:23.528Z,12.96
2019-05-29T10:11:08.441Z,12.91
2019-05-29T10:13:38.837Z,12.92
2019-05-29T10:16:14.444Z,12.97
2019-05-29T10:18:48.293Z,13.09
2019-05-29T10:21:38.638Z,13.12
2019-05-29T10:24:14.794Z,13.17
2019-05-29T10:26:49.854Z,13.19
2019-05-29T10:29:26.592Z,13.16
2019-05-29T10:32:00.515Z,13.27
2019-05-29T10:34:39.073Z,13.48
2019-05-29T10:37:26.375Z,13.53
2019-05-29T10:39:59.965Z,13.45
2019-05-29T10:42:36.903Z,13.40
2019-05-29T10:45:17.792Z,13.26
2019-05-29T10:47:54.169Z,13.29
2019-05-29T10:50:27.277Z,13.43
2019-05-29T10:53:02.681Z,13.48
2019-05-29T10:55:36.371Z,13.58
2019-05-29T10:58:11.383Z,13.75
2019-05-29T11:00:49.158Z,13.92
2019-05-29T11:03:24.592Z,13.98
2019-05-29T11:05:58.516Z,13.87
2019-05-29T11:08:36.151Z,13.87
2019-05-29T11:11:09.961Z,13.85
2019-05-29T11:13:44.763Z,14.03
2019-05-29T11:16:17.332Z,14.41
2019-05-29T11:18:51.237Z,14.50
2019-05-29T11:21:23.992Z,14.35
2019-05-29T11:23:58.187Z,14.30
2019-05-29T11:26:31.293Z,14.15
2019-05-29T11:29:04.936Z,13.94
2019-05-29T11:31:39.183Z,13.84
2019-05-29T11:34:11.963Z,13.74
2019-05-29T11:36:44.986Z,13.66
2019-05-29T11:39:18.513Z,13.63
2019-05-29T11:41:55.229Z,13.62
2019-05-29T11:44:28.423Z,13.55
2019-05-29T11:47:04.104Z,13.43
2019-05-29T11:49:37.527Z,13.41
2019-05-29T11:52:23.645Z,13.41
2019-05-29T11:54:46.004Z,13.32
2019-05-29T11:57:20.704Z,13.31
2019-05-29T12:00:00.079Z,13.26
2019-05-29T12:02:31.570Z,13.23
2019-05-29T12:05:04.397Z,13.18
2019-05-29T12:07:37.763Z,13.21
2019-05-29T12:10:12.312Z,13.30
2019-05-29T12:12:45.966Z,13.36
2019-05-29T12:15:20.723Z,13.34
2019-05-29T12:18:12.448Z,13.38
2019-05-29T12:20:38.879Z,13.40
2019-05-29T12:23:25.821Z,13.38
2019-05-29T12:26:10.305Z,13.43
2019-05-29T12:28:26.135Z,13.48
2019-05-29T12:30:59.481Z,13.53
2019-05-29T12:33:41.533Z,13.52
2019-05-29T12:36:28.605Z,13.59
2019-05-29T12:39:02.166Z,13.60
2019-05-29T12:41:38.760Z,13.58
2019-05-29T12:44:16.173Z,13.55
2019-05-29T12:46:51.020Z,13.37
2019-05-29T12:49:24.304Z,13.27
2019-05-29T12:52:02.462Z,13.27
2019-05-29T12:54:39.902Z,13.29
2019-05-29T12:57:13.094Z,13.33
2019-05-29T12:59:48.113Z,13.39
2019-05-29T13:02:21.133Z,13.38
2019-05-29T13:05:16.358Z,13.35
2019-05-29T13:07:41.431Z,13.41
2019-05-29T13:10:29.375Z,13.37
2019-05-29T13:12:49.033Z,13.49
2019-05-29T13:15:22.273Z,13.79
2019-05-29T13:18:00.959Z,13.96
2019-05-29T13:20:29.171Z,14.12
2019-05-29T13:23:03.628Z,14.25
2019-05-29T13:25:36.683Z,14.29
2019-05-29T13:28:09.303Z,14.40
2019-05-29T13:30:41.913Z,14.49
2019-05-29T13:33:14.546Z,14.41
2019-05-29T13:35:47.214Z,14.38
2019-05-29T13:38:19.762Z,14.22
2019-05-29T13:40:53.397Z,14.02
2019-05-29T13:43:25.953Z,13.95
2019-05-29T13:45:58.684Z,13.95
2019-05-29T13:48:31.333Z,13.96
2019-05-29T13:51:05.381Z,14.16
2019-05-29T13:53:38.377Z,14.35
2019-05-29T13:56:11.136Z,14.55
2019-05-29T13:58:43.657Z,14.68
2019-05-29T14:01:16.459Z,14.80
2019-05-29T14:03:50.661Z,15.09
2019-05-29T14:06:23.950Z,15.39
2019-05-29T14:08:56.719Z,15.36
2019-05-29T14:11:29.566Z,15.23
2019-05-29T14:14:04.070Z,15.26
2019-05-29T14:16:36.283Z,15.28
2019-05-29T14:19:09.464Z,15.24
2019-05-29T14:21:41.953Z,15.20
2019-05-29T14:24:28.158Z,15.23
2019-05-29T14:26:49.537Z,15.24
2019-05-29T14:29:22.225Z,15.16
2019-05-29T14:31:54.918Z,15.07
2019-05-29T14:34:30.386Z,14.88
2019-05-29T14:37:04.931Z,14.72
2019-05-29T14:39:37.503Z,14.58
2019-05-29T14:42:11.805Z,14.52
2019-05-29T14:44:44.652Z,14.40
2019-05-29T14:47:17.563Z,14.39
2019-05-29T14:49:50.233Z,14.37
2019-05-29T14:52:23.044Z,14.39
2019-05-29T14:54:56.394Z,14.41
2019-05-29T14:57:29.412Z,14.42
2019-05-29T15:00:07.035Z,14.46
2019-05-29T15:02:36.932Z,14.51
2019-05-29T15:05:09.965Z,14.55
2019-05-29T15:07:43.213Z,14.58
2019-05-29T15:10:27.490Z,14.60
2019-05-29T15:12:58.240Z,14.64
2019-05-29T15:15:36.472Z,14.71
2019-05-29T15:18:13.701Z,14.76
2019-05-29T15:20:45.772Z,14.77
2019-05-29T15:23:18.383Z,14.79
2019-05-29T15:25:55.242Z,14.77
2019-05-29T15:28:28.450Z,14.66
2019-05-29T15:31:01.077Z,14.61
2019-05-29T15:33:34.046Z,14.58
2019-05-29T15:36:13.270Z,14.67
2019-05-29T15:38:46.272Z,14.74
2019-05-29T15:41:19.044Z,14.78
2019-05-29T15:43:53.615Z,14.73
2019-05-29T15:48:53.293Z,14.91
2019-05-29T15:51:26.123Z,14.97
2019-05-29T15:53:58.910Z,14.96
2019-05-29T15:56:32.153Z,14.92
2019-05-29T15:59:05.272Z,14.84
2019-05-29T16:01:42.414Z,14.80
2019-05-29T16:04:15.798Z,14.74
2019-05-29T16:06:55.103Z,14.75
2019-05-29T16:09:29.444Z,14.81
2019-05-29T16:12:05.363Z,14.91
2019-05-29T16:14:42.484Z,14.98
2019-05-29T16:17:15.603Z,14.91
2019-05-29T16:19:48.844Z,14.93
2019-05-29T16:22:23.952Z,14.91
2019-05-29T16:24:56.763Z,14.84
2019-05-29T16:27:31.119Z,14.83
2019-05-29T16:30:04.596Z,14.80
2019-05-29T16:32:37.940Z,14.80
2019-05-29T16:35:12.944Z,14.79
2019-05-29T16:37:46.365Z,14.75
2019-05-29T16:40:19.933Z,14.71
2019-05-29T16:42:53.241Z,14.65
2019-05-29T16:45:26.723Z,14.69
2019-05-29T16:47:59.792Z,14.69
2019-05-29T16:50:32.563Z,14.68
2019-05-29T16:53:05.212Z,14.66
2019-05-29T16:55:51.065Z,14.63
2019-05-29T16:58:13.247Z,14.62
2019-05-29T17:00:45.992Z,14.61
2019-05-29T17:03:19.687Z,14.62
2019-05-29T17:05:52.442Z,14.63
2019-05-29T17:08:25.106Z,14.65
2019-05-29T17:10:57.513Z,14.65
2019-05-29T17:13:31.463Z,14.67
2019-05-29T17:16:03.842Z,14.65
2019-05-29T17:18:36.499Z,14.65
2019-05-29T17:21:09.364Z,14.60
2019-05-29T17:23:41.875Z,14.60
2019-05-29T17:26:14.710Z,14.62
2019-05-29T17:28:47.945Z,14.62
2019-05-29T17:31:20.912Z,14.61
2019-05-29T17:33:53.962Z,14.61
2019-05-29T17:36:28.679Z,14.58
2019-05-29T17:39:00.623Z,14.55
2019-05-29T17:41:33.962Z,14.53
2019-05-29T17:44:06.708Z,14.49
2019-05-29T17:46:39.833Z,14.47
2019-05-29T17:49:12.943Z,14.46
2019-05-29T17:51:45.801Z,14.46
2019-05-29T17:54:18.353Z,14.45
2019-05-29T17:56:51.882Z,14.43
2019-05-29T17:59:24.692Z,14.42
2019-05-29T18:01:57.567Z,14.41
2019-05-29T18:04:31.513Z,14.39
2019-05-29T18:07:04.002Z,14.36
2019-05-29T18:09:36.662Z,14.34
2019-05-29T18:12:09.443Z,14.30
2019-05-29T18:15:19.725Z,14.27
2019-05-29T18:17:51.303Z,14.25
2019-05-29T18:20:37.051Z,14.21
2019-05-29T18:23:12.242Z,14.21
2019-05-29T18:25:45.232Z,14.19
2019-05-29T18:28:18.182Z,14.15
2019-05-29T18:31:39.469Z,14.13
2019-05-29T18:34:51.764Z,14.10
2019-05-29T18:41:50.962Z,14.00
2019-05-29T18:44:24.804Z,13.95
2019-05-29T18:46:57.326Z,13.92
2019-05-29T18:49:29.813Z,13.85
2019-05-29T18:52:02.302Z,13.88
2019-05-29T18:54:34.928Z,13.85
2019-05-29T18:57:15.350Z,13.82
2019-05-29T18:59:42.253Z,13.79
2019-05-29T19:02:14.946Z,13.75
2019-05-29T19:04:47.443Z,13.75
2019-05-29T19:07:23.724Z,13.76
2019-05-29T19:09:56.862Z,13.76
2019-05-29T19:12:30.051Z,13.74
2019-05-29T19:15:03.173Z,13.70
2019-05-29T19:17:35.762Z,13.66
2019-05-29T19:20:09.350Z,13.66
2019-05-29T19:22:41.833Z,13.58
2019-05-29T19:25:14.912Z,13.59
2019-05-29T19:27:47.891Z,13.58
2019-05-29T19:30:24.865Z,13.59
2019-05-29T19:32:57.712Z,13.60
2019-05-29T19:35:31.626Z,13.58
2019-05-29T19:38:04.436Z,13.58
2019-05-29T19:40:37.113Z,13.57
2019-05-29T19:43:10.351Z,13.56
2019-05-29T19:45:43.252Z,13.56
2019-05-29T19:48:15.912Z,13.54
2019-05-29T19:50:51.944Z,13.51
2019-05-29T19:53:26.864Z,13.52
2019-05-29T19:56:02.003Z,13.50
2019-05-29T19:58:36.135Z,13.50
2019-05-29T20:01:09.193Z,13.50
2019-05-29T20:03:47.887Z,13.47
2019-05-29T20:06:25.372Z,13.46
2019-05-29T20:09:02.623Z,13.45
2019-05-29T20:11:37.865Z,13.47
2019-05-29T20:14:10.555Z,13.44
2019-05-29T20:16:43.150Z,13.44
2019-05-29T20:19:15.712Z,13.43
2019-05-29T20:21:48.213Z,13.44
2019-05-29T20:24:23.112Z,13.43
2019-05-29T20:26:55.652Z,13.42
2019-05-29T20:29:28.262Z,13.42
2019-05-29T20:32:00.883Z,13.39
2019-05-29T20:34:34.643Z,13.36
2019-05-29T20:37:08.325Z,13.37
2019-05-29T20:39:41.015Z,13.38
2019-05-29T20:42:14.125Z,13.38
2019-05-29T20:44:46.634Z,13.37
2019-05-29T20:47:19.494Z,13.37
2019-05-29T20:49:52.492Z,13.39
2019-05-29T20:52:25.152Z,13.38
2019-05-29T20:54:59.088Z,13.41
2019-05-29T20:57:31.803Z,13.42
2019-05-29T21:00:05.782Z,13.41
2019-05-29T21:02:40.506Z,13.40
2019-05-29T21:05:13.061Z,13.39
2019-05-29T21:07:45.647Z,13.37
2019-05-29T21:10:19.623Z,13.33
2019-05-29T21:12:52.373Z,13.33
2019-05-29T21:15:24.974Z,13.25
2019-05-29T21:17:57.751Z,13.23
2019-05-29T21:20:30.682Z,13.20
2019-05-29T21:23:04.063Z,13.22
2019-05-29T21:25:37.073Z,13.20
2019-05-29T21:28:09.613Z,13.18
2019-05-29T21:30:43.942Z,13.14
2019-05-29T21:33:16.483Z,13.12
2019-05-29T21:35:49.083Z,13.12
2019-05-29T21:38:22.422Z,13.09
2019-05-29T21:40:55.142Z,13.06
2019-05-29T21:43:27.767Z,13.06
2019-05-29T21:46:00.608Z,13.02
2019-05-29T21:48:34.102Z,13.00
2019-05-29T21:51:06.896Z,12.97
2019-05-29T21:53:39.392Z,12.96
2019-05-29T21:56:11.894Z,12.93
2019-05-29T21:58:59.981Z,12.90
2019-05-29T22:01:18.525Z,12.85
2019-05-29T22:03:51.306Z,12.79
2019-05-29T22:06:23.983Z,12.74
2019-05-29T22:08:57.515Z,12.69
2019-05-29T22:11:30.403Z,12.61
2019-05-29T22:14:02.743Z,12.59
2019-05-29T22:16:35.534Z,12.53
2019-05-29T22:19:08.194Z,12.49
2019-05-29T22:21:40.632Z,12.48
2019-05-29T22:24:13.072Z,12.40
2019-05-29T22:26:45.643Z,12.36
2019-05-29T22:29:18.673Z,12.32
2019-05-29T22:31:51.395Z,12.29
2019-05-29T22:34:24.134Z,12.26
2019-05-29T22:36:57.525Z,12.20
2019-05-29T22:39:30.662Z,12.18
2019-05-29T22:42:03.073Z,12.14
2019-05-29T22:44:35.533Z,12.05
2019-05-29T22:47:08.032Z,12.00
2019-05-29T22:49:40.623Z,11.99
2019-05-29T22:52:13.212Z,11.97
2019-05-29T22:54:45.682Z,11.92
2019-05-29T22:57:18.194Z,11.86
2019-05-29T22:59:51.754Z,11.84
2019-05-29T23:02:24.533Z,11.78
2019-05-29T23:04:58.346Z,11.72
2019-05-29T23:07:32.015Z,11.68
2019-05-29T23:10:04.723Z,11.66
2019-05-29T23:12:37.693Z,11.61
2019-05-29T23:15:10.826Z,11.59
2019-05-29T23:17:43.372Z,11.56
2019-05-29T23:20:16.122Z,11.52
2019-05-29T23:22:48.822Z,11.49
2019-05-29T23:25:21.573Z,11.48
2019-05-29T23:27:54.883Z,11.43
2019-05-29T23:30:30.473Z,11.45
2019-05-29T23:33:03.392Z,11.38
2019-05-29T23:35:36.801Z,11.37
2019-05-29T23:38:10.807Z,11.34
2019-05-29T23:40:45.613Z,11.31
2019-05-29T23:43:19.070Z,11.27
2019-05-29T23:45:53.282Z,11.25
2019-05-29T23:48:26.505Z,11.23
2019-05-29T23:50:59.787Z,11.19
2019-05-29T23:53:35.366Z,11.14
2019-05-29T23:56:11.635Z,11.09
2019-05-29T23:58:49.381Z,11.05
